This is the latest recevied weather packets stored in our database for station/object KC9DNQ-3. If no packets are shown the sender has not sent any weather packets the latest 10 day(s).
| Time | Temp. | Humidity | Pressure | Rain* | Wind** | Luminosity | Snow |
|---|---|---|---|---|---|---|---|
| 1778158811 | 6.67° C | 67% | 1015.1 hPa | 0 mm | - | 269 W/m² | - |
| 1778158510 | 6.67° C | 72% | 1015.1 hPa | 0 mm | - | 230 W/m² | - |
| 1778158209 | 6.11° C | 74% | 1015.1 hPa | 0 mm | - | 148 W/m² | - |
| 1778157909 | 5.56° C | 77% | 1015.1 hPa | 0 mm | - | 127 W/m² | - |
| 1778157610 | 5.56° C | 78% | 1014.7 hPa | 0 mm | - | 148 W/m² | - |
| 1778157310 | 5° C | 81% | 1014.7 hPa | 0 mm | - | 81 W/m² | - |
| 1778157010 | 5° C | 84% | 1014.7 hPa | 0 mm | - | 62 W/m² | - |
| 1778156710 | 4.44° C | 86% | 1014.7 hPa | 0 mm | - | 77 W/m² | - |
| 1778156409 | 3.89° C | 83% | 1014.7 hPa | 0 mm | - | 93 W/m² | - |
| 1778156109 | 3.33° C | 88% | 1014.7 hPa | 0 mm | - | 62 W/m² | - |
| 1778155810 | 3.33° C | 89% | 1014.6 hPa | 0 mm | - | 74 W/m² | - |
| 1778155510 | 2.78° C | 91% | 1014.6 hPa | 0 mm | - | 44 W/m² | - |
| 1778155211 | 2.78° C | 92% | 1014.6 hPa | 0 mm | - | 46 W/m² | - |
| 1778154909 | 2.22° C | 93% | 1014.7 hPa | 0 mm | - | 40 W/m² | - |
| 1778154609 | 2.22° C | 93% | 1014.7 hPa | 0 mm | - | 47 W/m² | - |
| 1778154310 | 1.67° C | 93% | 1014.6 hPa | 0 mm | - | 47 W/m² | - |
| 1778154010 | 1.67° C | 93% | 1014.5 hPa | 0 mm | - | 32 W/m² | - |
| 1778153709 | 1.67° C | 93% | 1014.5 hPa | 0 mm | - | 32 W/m² | - |
| 1778153410 | 1.11° C | 93% | 1014.6 hPa | 0 mm | - | 28 W/m² | - |
| 1778153111 | 1.11° C | 92% | 1014.6 hPa | 0 mm | - | 26 W/m² | - |
| 1778152809 | 1.11° C | 92% | 1014.6 hPa | 0 mm | - | 21 W/m² | - |
| 1778152510 | 1.11° C | 92% | 1014.6 hPa | 0 mm | - | 19 W/m² | - |
| 1778152210 | 1.11° C | 92% | 1014.6 hPa | 0 mm | - | 16 W/m² | - |
| 1778151910 | 1.11° C | 92% | 1014.6 hPa | 0 mm | - | 14 W/m² | - |
| 1778151610 | 1.11° C | 92% | 1014.7 hPa | 0 mm | - | 11 W/m² | - |
* Rain latest hour (hover to see other rain measurements)
** Current wind speed in m/s (hover to see current wind gust speed)